Logan Cache Airport
KLGU : now visible

Airfield :











YOU CAN JOIN US ON...

 
LOGIN :

Register | Disclaimer

   EN    FR    IT 

 









Legend :    VFR   Marginal VFR   IFR   Intensive IFR   Very Intensive IFR
Visi :
Ceiling :
>= 8 km
>= 3000ft
5 to 8 km
1000 to 3000 ft
1500m to 5 km
500 to 1000 ft
800 to 1500m
200 to 500 ft
< 800m
< 200 ft
Symbols :   Thunderstorms  Fog  Heavy snow  Heavy precipitations  Wind > 20 kt






- Airport Elevation : 4457 ft


KLGU - Logan Cache

CURRENT METAR :
  • 080651Z AUTO 22004KT 4SM BR OVC065 M01/M01 A2992 RMK AO2 UPB12E24 SLP153 P0000 T10061011 400001039

EXPIRED METARs :
  • 080551Z AUTO 36006KT 3SM BR BKN075 BKN090 M02/M03 A2994 RMK AO2 SLP164 60000 T10221033 10000 21028 56018
  • 080517Z AUTO 31004KT 2 1/2SM BR BKN065 M02/M03 A2995 RMK AO2 T10221033
  • 080451Z AUTO 16003KT 3SM BR OVC065 M01/M02 A2996 RMK AO2 SLP164 T10061017

TAF KLGU
Valid from the 08 at 06:00 until the 09 at 06:00 UTC


080526Z 0806/0906 VRB03KT 3SM BR VCSH SCT030 BKN060
FM081100 29006KT 2SM -SNRA BR BKN007 BKN015
FM082100 VRB05KT P6SM VCSH SCT020 BKN040



MET'MAP, your aeronautical weather chart ! - Copyright ORBIFLY December 2007 - Disclaimer

ORBIFLY MET'MAP TEAM :

Programming & Development : Alexandra Zaïnal
Concept & original design : Baudouin d'Aumeries
Assistance for programming : Marc-Olivier Méhu
Technical & hardware support : Manuel Goepfert

Contact : metmap@orbifly.com




SOURCES & CREDITS :

   NOAA       Earth
Advisory